Pagrindinis puslapis
METAR-TAF:

METAR-TAF

Oro uostai :

Sandefjordas, Norvegija

platuma: 59-12N, ilguma: 010-16E, Aukštis: 8 m

Dabartinis oras

Ataskaita buvo paskelbta 1 valandą ir 17 minutes, ne 12:50 UTC
Vėjas 9 kt iš Pietų
Temperatūra 23°C
Drėgmė 29%
Slėgis 1028 hPa
Matomumas 10 km arba daugiau
nėra debesų žemiau 1500 m ir nėra kamuolinių lietaus debesų

METAR: ENTO 011250Z 19009KT CAVOK 23/04 Q1028 NOSIG

Laikas: 16:07 (14:07 UTC)

Prognozė

Prognozė galioja nuo 01 metu 12 UTC su 02 metu 12 UTC
Vėjas 5 kt nuo kintamojo kryptimis
Matomumas 10 km arba daugiau
nėra debesų žemiau 1500 m ir nėra kamuolinių lietaus debesų
Tapsmas
nuo 02 metu 09 UTC su 02 metu 11 UTC
Vėjas 12 kt iš Pietų

TAF: ENTO 0112/0212 VRB05KT CAVOK BECMG 0209/0211 18012KT

Orai ataskaitas ir orų prognozės (METAR, TAF).

turimą stotys yra geltonos ir raudonos taškus žemėlapyje.

Perkelti pele per norėdami pamatyti stoties vardą.

Tada spustelėkite, norėdami matyti oro stebėjimo ir prognozės.

Norėdami pakeisti žemėlapį: spustelėkite ant žalios mygtukų su juodo kryžiaus žemyn,; žalią mygtuką su brūkšneliu, jei norite nutolinti; arba žalių rodyklių gretimoms žemėlapius.


METAR-TAF: